aviador You're here:

LBSF Decoded Metar

SOFIA in BULGARIA
Report Time2017-12-13 10:30:00
UTC Time2017-12-13 10:49:54
Flight Rules vfr VFR
WindVRB at 02 kt
Visibility8000 m
Phenomena:N/A
Clouds:N/A
Expected CloudBase > 800 ft AGL from Temp-Dew spread
CeilingNone
Temp07°C (ISA -4)
Dew Point05°C (87% RH)
AAT5.2°C
QNH1018 hPa
Density Alt1,414 ft
Elevation1,952 ft
Report Wrong Elevation
Raw Report
LBSF 131030Z VRB02KT 8000 NSC 07/05 Q1018 NOSIG=

Extra information for LBSF:More info

Metar Taf Metar & Taf Last 4 Metars F.Rules Stats Wind Profile Meteogram Temp Stats Airport Information Weather charts Add Link Nearby VenuesMetar ALERT Operation Metar Decoded Social comments